sensor_id;sensor_type;location;lat;lon;timestamp;pressure;altitude;pressure_sealevel;temperature;humidity
17311;BME280;8773;43.300;0.394;2023-04-19T00:00:07;99522.84;;;10.98;nan
17311;BME280;8773;43.300;0.394;2023-04-19T00:02:36;99521.16;;;10.89;nan
17311;BME280;8773;43.300;0.394;2023-04-19T00:05:09;99520.19;;;10.98;nan
17311;BME280;8773;43.300;0.394;2023-04-19T00:07:39;99513.50;;;11.02;nan
17311;BME280;8773;43.300;0.394;2023-04-19T00:10:08;99516.34;;;11.01;nan
17311;BME280;8773;43.300;0.394;2023-04-19T00:12:36;99510.16;;;11.00;nan
17311;BME280;8773;43.300;0.394;2023-04-19T00:15:05;99515.31;;;10.94;nan
17311;BME280;8773;43.300;0.394;2023-04-19T00:17:37;99507.16;;;10.95;nan
17311;BME280;8773;43.300;0.394;2023-04-19T00:20:06;99500.47;;;10.91;nan
17311;BME280;8773;43.300;0.394;2023-04-19T00:22:35;99496.44;;;10.87;nan
17311;BME280;8773;43.300;0.394;2023-04-19T00:25:04;99506.78;;;10.82;nan
17311;BME280;8773;43.300;0.394;2023-04-19T00:27:32;99506.09;;;10.80;nan
17311;BME280;8773;43.300;0.394;2023-04-19T00:30:00;99508.44;;;10.83;nan
17311;BME280;8773;43.300;0.394;2023-04-19T00:32:28;99509.94;;;10.78;nan
17311;BME280;8773;43.300;0.394;2023-04-19T00:34:58;99499.22;;;10.69;nan
17311;BME280;8773;43.300;0.394;2023-04-19T00:37:26;99505.06;;;10.65;nan
17311;BME280;8773;43.300;0.394;2023-04-19T00:39:56;99495.38;;;10.56;nan
17311;BME280;8773;43.300;0.394;2023-04-19T00:42:24;99494.03;;;10.60;nan
17311;BME280;8773;43.300;0.394;2023-04-19T00:44:52;99490.22;;;10.62;nan
17311;BME280;8773;43.300;0.394;2023-04-19T00:47:20;99494.72;;;10.62;nan
17311;BME280;8773;43.300;0.394;2023-04-19T00:49:48;99490.19;;;10.54;nan
17311;BME280;8773;43.300;0.394;2023-04-19T00:52:18;99482.50;;;10.51;nan
17311;BME280;8773;43.300;0.394;2023-04-19T00:54:46;99477.16;;;10.51;nan
17311;BME280;8773;43.300;0.394;2023-04-19T00:57:15;99480.31;;;10.47;nan
17311;BME280;8773;43.300;0.394;2023-04-19T00:59:44;99476.78;;;10.38;nan
17311;BME280;8773;43.300;0.394;2023-04-19T01:02:13;99482.09;;;10.38;nan
17311;BME280;8773;43.300;0.394;2023-04-19T01:04:41;99465.91;;;10.31;nan
17311;BME280;8773;43.300;0.394;2023-04-19T01:07:09;99474.59;;;10.33;nan
17311;BME280;8773;43.300;0.394;2023-04-19T01:09:42;99474.41;;;10.35;nan
17311;BME280;8773;43.300;0.394;2023-04-19T01:12:13;99471.88;;;10.17;nan
17311;BME280;8773;43.300;0.394;2023-04-19T01:14:41;99486.38;;;9.89;nan
17311;BME280;8773;43.300;0.394;2023-04-19T01:17:10;99474.31;;;9.85;nan
17311;BME280;8773;43.300;0.394;2023-04-19T01:19:39;99464.88;;;9.90;nan
17311;BME280;8773;43.300;0.394;2023-04-19T01:22:08;99461.78;;;10.03;nan
17311;BME280;8773;43.300;0.394;2023-04-19T01:24:37;99462.41;;;9.97;nan
17311;BME280;8773;43.300;0.394;2023-04-19T01:27:05;99465.91;;;9.97;nan
17311;BME280;8773;43.300;0.394;2023-04-19T01:29:33;99463.78;;;10.01;nan
17311;BME280;8773;43.300;0.394;2023-04-19T01:32:01;99463.97;;;10.07;nan
17311;BME280;8773;43.300;0.394;2023-04-19T01:34:29;99467.47;;;10.08;nan
17311;BME280;8773;43.300;0.394;2023-04-19T01:36:57;99465.44;;;10.02;nan
17311;BME280;8773;43.300;0.394;2023-04-19T01:39:25;99469.63;;;10.04;nan
17311;BME280;8773;43.300;0.394;2023-04-19T01:41:55;99465.25;;;9.95;nan
17311;BME280;8773;43.300;0.394;2023-04-19T01:44:23;99463.88;;;9.91;nan
17311;BME280;8773;43.300;0.394;2023-04-19T01:46:54;99457.31;;;9.86;nan
17311;BME280;8773;43.300;0.394;2023-04-19T01:49:24;99452.28;;;9.74;nan
17311;BME280;8773;43.300;0.394;2023-04-19T01:51:52;99455.97;;;9.56;nan
17311;BME280;8773;43.300;0.394;2023-04-19T01:54:20;99455.81;;;9.57;nan
17311;BME280;8773;43.300;0.394;2023-04-19T01:56:48;99457.09;;;9.71;nan
17311;BME280;8773;43.300;0.394;2023-04-19T01:59:17;99454.28;;;9.81;nan
17311;BME280;8773;43.300;0.394;2023-04-19T02:01:45;99446.63;;;9.78;nan
17311;BME280;8773;43.300;0.394;2023-04-19T02:04:13;99452.78;;;9.78;nan
17311;BME280;8773;43.300;0.394;2023-04-19T02:06:41;99459.28;;;9.75;nan
17311;BME280;8773;43.300;0.394;2023-04-19T02:09:09;99457.91;;;9.71;nan
17311;BME280;8773;43.300;0.394;2023-04-19T02:11:37;99452.06;;;9.68;nan
17311;BME280;8773;43.300;0.394;2023-04-19T02:14:05;99459.00;;;9.61;nan
17311;BME280;8773;43.300;0.394;2023-04-19T02:16:35;99463.50;;;9.60;nan
17311;BME280;8773;43.300;0.394;2023-04-19T02:19:03;99455.19;;;9.63;nan
17311;BME280;8773;43.300;0.394;2023-04-19T02:21:31;99452.47;;;9.55;nan
17311;BME280;8773;43.300;0.394;2023-04-19T02:23:59;99456.75;;;9.48;nan
17311;BME280;8773;43.300;0.394;2023-04-19T02:26:27;99455.38;;;9.44;nan
17311;BME280;8773;43.300;0.394;2023-04-19T02:28:55;99451.03;;;9.43;nan
17311;BME280;8773;43.300;0.394;2023-04-19T02:31:23;99451.34;;;9.40;nan
17311;BME280;8773;43.300;0.394;2023-04-19T02:33:53;99457.19;;;9.35;nan
17311;BME280;8773;43.300;0.394;2023-04-19T02:36:21;99461.38;;;9.02;nan
17311;BME280;8773;43.300;0.394;2023-04-19T02:38:49;99464.03;;;9.02;nan
17311;BME280;8773;43.300;0.394;2023-04-19T02:41:17;99464.31;;;8.64;nan
17311;BME280;8773;43.300;0.394;2023-04-19T02:43:45;99453.97;;;8.61;nan
17311;BME280;8773;43.300;0.394;2023-04-19T02:46:16;99453.19;;;8.51;nan
17311;BME280;8773;43.300;0.394;2023-04-19T02:48:44;99455.59;;;8.71;nan
17311;BME280;8773;43.300;0.394;2023-04-19T02:51:15;99454.63;;;8.90;nan
17311;BME280;8773;43.300;0.394;2023-04-19T02:53:43;99458.03;;;9.00;nan
17311;BME280;8773;43.300;0.394;2023-04-19T02:56:11;99452.84;;;8.99;nan
17311;BME280;8773;43.300;0.394;2023-04-19T02:58:39;99446.91;;;9.05;nan
17311;BME280;8773;43.300;0.394;2023-04-19T03:01:08;99444.88;;;8.99;nan
17311;BME280;8773;43.300;0.394;2023-04-19T03:03:36;99444.09;;;9.06;nan
17311;BME280;8773;43.300;0.394;2023-04-19T03:06:04;99452.41;;;9.03;nan
17311;BME280;8773;43.300;0.394;2023-04-19T03:08:33;99453.63;;;8.91;nan
17311;BME280;8773;43.300;0.394;2023-04-19T03:11:01;99444.13;;;8.89;nan
17311;BME280;8773;43.300;0.394;2023-04-19T03:13:30;99443.59;;;8.85;nan
17311;BME280;8773;43.300;0.394;2023-04-19T03:15:58;99450.97;;;8.73;nan
17311;BME280;8773;43.300;0.394;2023-04-19T03:18:26;99446.56;;;8.82;nan
17311;BME280;8773;43.300;0.394;2023-04-19T03:20:53;99440.78;;;8.87;nan
17311;BME280;8773;43.300;0.394;2023-04-19T03:23:21;99438.72;;;8.81;nan
17311;BME280;8773;43.300;0.394;2023-04-19T03:25:51;99436.91;;;8.81;nan
17311;BME280;8773;43.300;0.394;2023-04-19T03:28:19;99440.94;;;8.85;nan
17311;BME280;8773;43.300;0.394;2023-04-19T03:30:47;99429.59;;;8.83;nan
17311;BME280;8773;43.300;0.394;2023-04-19T03:33:15;99438.56;;;8.82;nan
17311;BME280;8773;43.300;0.394;2023-04-19T03:35:46;99442.38;;;8.80;nan
17311;BME280;8773;43.300;0.394;2023-04-19T03:38:14;99433.84;;;8.76;nan
17311;BME280;8773;43.300;0.394;2023-04-19T03:40:42;99441.66;;;8.60;nan
17311;BME280;8773;43.300;0.394;2023-04-19T03:43:11;99434.66;;;8.59;nan
17311;BME280;8773;43.300;0.394;2023-04-19T03:45:39;99441.66;;;8.60;nan
17311;BME280;8773;43.300;0.394;2023-04-19T03:48:07;99437.31;;;8.59;nan
17311;BME280;8773;43.300;0.394;2023-04-19T03:50:35;99439.16;;;8.58;nan
17311;BME280;8773;43.300;0.394;2023-04-19T03:53:03;99432.00;;;8.59;nan
17311;BME280;8773;43.300;0.394;2023-04-19T03:55:31;99432.75;;;8.51;nan
17311;BME280;8773;43.300;0.394;2023-04-19T03:57:59;99433.53;;;8.43;nan
17311;BME280;8773;43.300;0.394;2023-04-19T04:00:29;99428.56;;;8.21;nan
17311;BME280;8773;43.300;0.394;2023-04-19T04:02:57;99428.56;;;8.21;nan
17311;BME280;8773;43.300;0.394;2023-04-19T04:05:26;99431.63;;;8.26;nan
17311;BME280;8773;43.300;0.394;2023-04-19T04:07:54;99433.28;;;8.37;nan
17311;BME280;8773;43.300;0.394;2023-04-19T04:10:23;99433.13;;;8.38;nan
17311;BME280;8773;43.300;0.394;2023-04-19T04:12:51;99432.25;;;8.48;nan
17311;BME280;8773;43.300;0.394;2023-04-19T04:15:19;99437.22;;;8.33;nan
17311;BME280;8773;43.300;0.394;2023-04-19T04:17:49;99435.69;;;8.30;nan
17311;BME280;8773;43.300;0.394;2023-04-19T04:20:17;99435.53;;;8.04;nan
17311;BME280;8773;43.300;0.394;2023-04-19T04:22:45;99437.81;;;8.17;nan
17311;BME280;8773;43.300;0.394;2023-04-19T04:25:13;99428.31;;;8.15;nan
17311;BME280;8773;43.300;0.394;2023-04-19T04:27:42;99433.09;;;8.11;nan
17311;BME280;8773;43.300;0.394;2023-04-19T04:30:11;99431.34;;;8.02;nan
17311;BME280;8773;43.300;0.394;2023-04-19T04:32:39;99431.53;;;8.18;nan
17311;BME280;8773;43.300;0.394;2023-04-19T04:35:09;99440.03;;;8.31;nan
17311;BME280;8773;43.300;0.394;2023-04-19T04:37:37;99432.44;;;8.36;nan
17311;BME280;8773;43.300;0.394;2023-04-19T04:40:06;99436.25;;;8.34;nan
17311;BME280;8773;43.300;0.394;2023-04-19T04:42:35;99441.25;;;8.37;nan
17311;BME280;8773;43.300;0.394;2023-04-19T04:45:04;99443.78;;;8.29;nan
17311;BME280;8773;43.300;0.394;2023-04-19T04:47:33;99448.72;;;8.24;nan
17311;BME280;8773;43.300;0.394;2023-04-19T04:50:01;99451.81;;;8.19;nan
17311;BME280;8773;43.300;0.394;2023-04-19T04:52:31;99458.81;;;8.20;nan
17311;BME280;8773;43.300;0.394;2023-04-19T04:54:59;99458.81;;;8.20;nan
17311;BME280;8773;43.300;0.394;2023-04-19T04:57:26;99465.25;;;8.18;nan
17311;BME280;8773;43.300;0.394;2023-04-19T04:59:54;99462.44;;;8.19;nan
17311;BME280;8773;43.300;0.394;2023-04-19T05:02:23;99462.00;;;7.96;nan
17311;BME280;8773;43.300;0.394;2023-04-19T05:04:51;99468.84;;;7.99;nan
17311;BME280;8773;43.300;0.394;2023-04-19T05:07:19;99468.28;;;8.05;nan
17311;BME280;8773;43.300;0.394;2023-04-19T05:09:48;99467.09;;;7.80;nan
17311;BME280;8773;43.300;0.394;2023-04-19T05:12:16;99466.09;;;7.91;nan
17311;BME280;8773;43.300;0.394;2023-04-19T05:14:44;99477.69;;;7.90;nan
17311;BME280;8773;43.300;0.394;2023-04-19T05:17:12;99470.97;;;7.95;nan
17311;BME280;8773;43.300;0.394;2023-04-19T05:19:40;99465.00;;;8.11;nan
17311;BME280;8773;43.300;0.394;2023-04-19T05:22:08;99466.81;;;8.10;nan
17311;BME280;8773;43.300;0.394;2023-04-19T05:24:36;99469.31;;;8.22;nan
17311;BME280;8773;43.300;0.394;2023-04-19T05:27:08;99464.66;;;8.33;nan
17311;BME280;8773;43.300;0.394;2023-04-19T05:29:36;99462.28;;;8.30;nan
17311;BME280;8773;43.300;0.394;2023-04-19T05:32:04;99468.69;;;8.37;nan
17311;BME280;8773;43.300;0.394;2023-04-19T05:34:33;99458.47;;;8.42;nan
17311;BME280;8773;43.300;0.394;2023-04-19T05:37:01;99468.50;;;8.49;nan
17311;BME280;8773;43.300;0.394;2023-04-19T05:39:29;99471.81;;;8.51;nan
17311;BME280;8773;43.300;0.394;2023-04-19T05:41:57;99472.16;;;8.48;nan
17311;BME280;8773;43.300;0.394;2023-04-19T05:44:27;99481.94;;;8.10;nan
17311;BME280;8773;43.300;0.394;2023-04-19T05:46:55;99475.16;;;8.25;nan
17311;BME280;8773;43.300;0.394;2023-04-19T05:49:23;99469.44;;;8.30;nan
17311;BME280;8773;43.300;0.394;2023-04-19T05:51:51;99468.44;;;8.31;nan
17311;BME280;8773;43.300;0.394;2023-04-19T05:54:21;99469.44;;;8.20;nan
17311;BME280;8773;43.300;0.394;2023-04-19T05:56:48;99466.34;;;8.25;nan
17311;BME280;8773;43.300;0.394;2023-04-19T05:59:16;99469.94;;;8.43;nan
17311;BME280;8773;43.300;0.394;2023-04-19T06:01:46;99469.25;;;8.59;nan
17311;BME280;8773;43.300;0.394;2023-04-19T06:04:14;99462.06;;;8.69;nan
17311;BME280;8773;43.300;0.394;2023-04-19T06:06:42;99462.97;;;8.78;nan
17311;BME280;8773;43.300;0.394;2023-04-19T06:09:11;99456.66;;;8.96;nan
17311;BME280;8773;43.300;0.394;2023-04-19T06:11:39;99456.72;;;9.22;nan
17311;BME280;8773;43.300;0.394;2023-04-19T06:14:15;99455.06;;;9.47;nan
17311;BME280;8773;43.300;0.394;2023-04-19T06:16:45;99455.03;;;9.91;nan
17311;BME280;8773;43.300;0.394;2023-04-19T06:19:13;99449.84;;;10.73;nan
17311;BME280;8773;43.300;0.394;2023-04-19T06:21:41;99446.22;;;11.56;nan
17311;BME280;8773;43.300;0.394;2023-04-19T06:24:09;99436.72;;;12.48;nan
17311;BME280;8773;43.300;0.394;2023-04-19T06:26:37;99432.09;;;12.95;nan
17311;BME280;8773;43.300;0.394;2023-04-19T06:29:05;99427.34;;;13.43;nan
17311;BME280;8773;43.300;0.394;2023-04-19T06:31:36;99425.47;;;13.96;nan
17311;BME280;8773;43.300;0.394;2023-04-19T06:41:29;99423.41;;;15.21;nan
17311;BME280;8773;43.300;0.394;2023-04-19T06:43:57;99421.44;;;15.08;nan
17311;BME280;8773;43.300;0.394;2023-04-19T06:46:25;99423.16;;;15.37;nan
17311;BME280;8773;43.300;0.394;2023-04-19T06:48:54;99418.13;;;15.83;nan
17311;BME280;8773;43.300;0.394;2023-04-19T06:51:23;99414.72;;;16.50;nan
17311;BME280;8773;43.300;0.394;2023-04-19T06:53:51;99406.78;;;17.03;nan
17311;BME280;8773;43.300;0.394;2023-04-19T06:56:38;99406.16;;;17.47;nan
17311;BME280;8773;43.300;0.394;2023-04-19T06:59:06;99412.41;;;17.54;nan
17311;BME280;8773;43.300;0.394;2023-04-19T07:01:34;99408.47;;;17.57;nan
17311;BME280;8773;43.300;0.394;2023-04-19T07:04:02;99403.22;;;17.95;nan
17311;BME280;8773;43.300;0.394;2023-04-19T07:06:32;99401.59;;;18.39;nan
17311;BME280;8773;43.300;0.394;2023-04-19T07:09:01;99393.44;;;18.52;nan
17311;BME280;8773;43.300;0.394;2023-04-19T07:11:29;99400.38;;;18.79;nan
17311;BME280;8773;43.300;0.394;2023-04-19T07:13:57;99392.88;;;19.13;nan
17311;BME280;8773;43.300;0.394;2023-04-19T07:16:26;99395.53;;;19.44;nan
17311;BME280;8773;43.300;0.394;2023-04-19T07:18:54;99386.53;;;19.50;nan
17311;BME280;8773;43.300;0.394;2023-04-19T07:21:23;99389.66;;;19.72;nan
17311;BME280;8773;43.300;0.394;2023-04-19T07:23:55;99382.91;;;19.99;nan
17311;BME280;8773;43.300;0.394;2023-04-19T07:26:23;99377.72;;;20.34;nan
17311;BME280;8773;43.300;0.394;2023-04-19T07:28:51;99373.41;;;20.75;nan
17311;BME280;8773;43.300;0.394;2023-04-19T07:31:19;99379.63;;;20.94;nan
17311;BME280;8773;43.300;0.394;2023-04-19T07:33:47;99375.66;;;21.20;nan
17311;BME280;8773;43.300;0.394;2023-04-19T07:36:15;99373.78;;;21.55;nan
17311;BME280;8773;43.300;0.394;2023-04-19T07:38:43;99372.72;;;21.56;nan
17311;BME280;8773;43.300;0.394;2023-04-19T07:41:13;99371.22;;;21.72;nan
17311;BME280;8773;43.300;0.394;2023-04-19T07:43:41;99374.19;;;21.82;nan
17311;BME280;8773;43.300;0.394;2023-04-19T07:46:09;99361.13;;;21.96;nan
17311;BME280;8773;43.300;0.394;2023-04-19T07:51:09;99237.63;;;21.63;nan
17311;BME280;8773;43.300;0.394;2023-04-19T07:53:39;99362.16;;;22.18;nan
17311;BME280;8773;43.300;0.394;2023-04-19T07:56:07;99370.22;;;22.13;nan
17311;BME280;8773;43.300;0.394;2023-04-19T07:58:39;99363.50;;;22.04;nan
17311;BME280;8773;43.300;0.394;2023-04-19T08:01:08;99373.31;;;21.35;nan
17311;BME280;8773;43.300;0.394;2023-04-19T08:03:37;99379.69;;;20.87;nan
17311;BME280;8773;43.300;0.394;2023-04-19T08:06:06;99369.75;;;20.21;nan
17311;BME280;8773;43.300;0.394;2023-04-19T08:08:34;99387.69;;;19.61;nan
17311;BME280;8773;43.300;0.394;2023-04-19T08:11:03;99381.34;;;19.24;nan
17311;BME280;8773;43.300;0.394;2023-04-19T08:13:34;99378.94;;;18.84;nan
17311;BME280;8773;43.300;0.394;2023-04-19T08:16:04;99372.88;;;18.51;nan
17311;BME280;8773;43.300;0.394;2023-04-19T08:18:38;99374.69;;;18.12;nan
17311;BME280;8773;43.300;0.394;2023-04-19T08:21:06;99375.94;;;18.03;nan
17311;BME280;8773;43.300;0.394;2023-04-19T08:23:33;99374.19;;;17.70;nan
17311;BME280;8773;43.300;0.394;2023-04-19T08:26:13;99374.41;;;17.62;nan
17311;BME280;8773;43.300;0.394;2023-04-19T08:28:41;99384.78;;;17.65;nan
17311;BME280;8773;43.300;0.394;2023-04-19T08:31:10;99384.53;;;17.60;nan
17311;BME280;8773;43.300;0.394;2023-04-19T08:33:38;99381.66;;;17.55;nan
17311;BME280;8773;43.300;0.394;2023-04-19T08:36:07;99383.75;;;17.40;nan
17311;BME280;8773;43.300;0.394;2023-04-19T08:38:35;99385.63;;;17.33;nan
17311;BME280;8773;43.300;0.394;2023-04-19T08:41:04;99377.94;;;17.50;nan
17311;BME280;8773;43.300;0.394;2023-04-19T08:43:34;99376.88;;;17.57;nan
17311;BME280;8773;43.300;0.394;2023-04-19T08:46:06;99380.63;;;17.30;nan
17311;BME280;8773;43.300;0.394;2023-04-19T08:48:37;99380.44;;;17.38;nan
17311;BME280;8773;43.300;0.394;2023-04-19T08:51:07;99377.09;;;17.62;nan
17311;BME280;8773;43.300;0.394;2023-04-19T08:53:36;99380.84;;;17.61;nan
17311;BME280;8773;43.300;0.394;2023-04-19T08:56:06;99370.03;;;17.68;nan
17311;BME280;8773;43.300;0.394;2023-04-19T08:58:46;99362.13;;;17.73;nan
17311;BME280;8773;43.300;0.394;2023-04-19T09:01:17;99369.81;;;17.63;nan
17311;BME280;8773;43.300;0.394;2023-04-19T09:04:00;99367.31;;;17.75;nan
17311;BME280;8773;43.300;0.394;2023-04-19T09:06:46;99368.78;;;17.70;nan
17311;BME280;8773;43.300;0.394;2023-04-19T09:09:17;99371.22;;;17.92;nan
17311;BME280;8773;43.300;0.394;2023-04-19T09:12:00;99368.03;;;18.08;nan
17311;BME280;8773;43.300;0.394;2023-04-19T09:14:28;99368.22;;;18.13;nan
17311;BME280;8773;43.300;0.394;2023-04-19T09:17:10;99367.41;;;18.13;nan
17311;BME280;8773;43.300;0.394;2023-04-19T09:19:48;99364.28;;;18.16;nan
17311;BME280;8773;43.300;0.394;2023-04-19T09:22:16;99354.81;;;18.38;nan
17311;BME280;8773;43.300;0.394;2023-04-19T09:24:45;99358.16;;;18.40;nan
17311;BME280;8773;43.300;0.394;2023-04-19T09:27:24;99363.47;;;18.60;nan
17311;BME280;8773;43.300;0.394;2023-04-19T09:29:53;99353.75;;;18.46;nan
17311;BME280;8773;43.300;0.394;2023-04-19T09:32:22;99353.06;;;18.57;nan
17311;BME280;8773;43.300;0.394;2023-04-19T09:34:53;99353.03;;;18.63;nan
17311;BME280;8773;43.300;0.394;2023-04-19T09:37:22;99350.25;;;18.77;nan
17311;BME280;8773;43.300;0.394;2023-04-19T09:39:53;99343.94;;;18.89;nan
17311;BME280;8773;43.300;0.394;2023-04-19T09:42:21;99342.94;;;18.84;nan
17311;BME280;8773;43.300;0.394;2023-04-19T09:45:10;99339.84;;;19.05;nan
17311;BME280;8773;43.300;0.394;2023-04-19T09:48:02;99344.03;;;19.26;nan
17311;BME280;8773;43.300;0.394;2023-04-19T09:50:34;99350.41;;;19.38;nan
17311;BME280;8773;43.300;0.394;2023-04-19T09:53:16;99341.66;;;19.36;nan
17311;BME280;8773;43.300;0.394;2023-04-19T09:55:47;99338.84;;;19.49;nan
17311;BME280;8773;43.300;0.394;2023-04-19T09:58:26;99335.56;;;19.65;nan
17311;BME280;8773;43.300;0.394;2023-04-19T10:01:09;99328.41;;;19.71;nan
17311;BME280;8773;43.300;0.394;2023-04-19T10:03:43;99326.44;;;19.78;nan
17311;BME280;8773;43.300;0.394;2023-04-19T10:06:15;99319.13;;;19.79;nan
17311;BME280;8773;43.300;0.394;2023-04-19T10:09:03;99325.03;;;19.76;nan
17311;BME280;8773;43.300;0.394;2023-04-19T10:11:32;99318.09;;;19.61;nan
17311;BME280;8773;43.300;0.394;2023-04-19T10:14:05;99322.06;;;19.77;nan
17311;BME280;8773;43.300;0.394;2023-04-19T10:16:34;99319.38;;;19.77;nan
17311;BME280;8773;43.300;0.394;2023-04-19T10:19:05;99315.47;;;19.73;nan
17311;BME280;8773;43.300;0.394;2023-04-19T10:21:37;99308.09;;;19.98;nan
17311;BME280;8773;43.300;0.394;2023-04-19T10:24:07;99303.97;;;20.14;nan
17311;BME280;8773;43.300;0.394;2023-04-19T10:27:04;99309.34;;;19.96;nan
17311;BME280;8773;43.300;0.394;2023-04-19T10:29:58;99311.91;;;20.27;nan
17311;BME280;8773;43.300;0.394;2023-04-19T10:32:28;99311.63;;;20.17;nan
17311;BME280;8773;43.300;0.394;2023-04-19T10:35:01;99304.09;;;20.19;nan
17311;BME280;8773;43.300;0.394;2023-04-19T10:37:32;99307.88;;;20.18;nan
17311;BME280;8773;43.300;0.394;2023-04-19T10:40:00;99310.31;;;20.20;nan
17311;BME280;8773;43.300;0.394;2023-04-19T10:45:33;99302.44;;;20.18;nan
17311;BME280;8773;43.300;0.394;2023-04-19T10:48:02;99307.25;;;19.98;nan
17311;BME280;8773;43.300;0.394;2023-04-19T10:50:57;99296.66;;;20.15;nan
17311;BME280;8773;43.300;0.394;2023-04-19T10:53:49;99305.97;;;20.49;nan
17311;BME280;8773;43.300;0.394;2023-04-19T10:56:20;99294.78;;;20.27;nan
17311;BME280;8773;43.300;0.394;2023-04-19T10:59:12;99297.38;;;20.52;nan
17311;BME280;8773;43.300;0.394;2023-04-19T11:01:49;99288.75;;;20.13;nan
17311;BME280;8773;43.300;0.394;2023-04-19T11:04:18;99290.94;;;20.34;nan
17311;BME280;8773;43.300;0.394;2023-04-19T11:06:58;99292.47;;;20.72;nan
17311;BME280;8773;43.300;0.394;2023-04-19T11:09:30;99290.84;;;20.41;nan
17311;BME280;8773;43.300;0.394;2023-04-19T11:12:01;99297.66;;;20.62;nan
17311;BME280;8773;43.300;0.394;2023-04-19T11:14:30;99285.66;;;20.40;nan
17311;BME280;8773;43.300;0.394;2023-04-19T11:16:59;99277.47;;;20.28;nan
17311;BME280;8773;43.300;0.394;2023-04-19T11:19:30;99278.66;;;20.62;nan
17311;BME280;8773;43.300;0.394;2023-04-19T11:21:58;99266.59;;;20.99;nan
17311;BME280;8773;43.300;0.394;2023-04-19T11:24:26;99278.16;;;20.95;nan
17311;BME280;8773;43.300;0.394;2023-04-19T11:26:56;99266.69;;;21.28;nan
17311;BME280;8773;43.300;0.394;2023-04-19T11:29:24;99267.19;;;21.37;nan
17311;BME280;8773;43.300;0.394;2023-04-19T11:31:52;99265.28;;;21.25;nan
17311;BME280;8773;43.300;0.394;2023-04-19T11:34:22;99270.38;;;20.98;nan
17311;BME280;8773;43.300;0.394;2023-04-19T11:36:51;99269.44;;;21.05;nan
17311;BME280;8773;43.300;0.394;2023-04-19T11:39:19;99262.22;;;20.98;nan
17311;BME280;8773;43.300;0.394;2023-04-19T11:41:50;99254.78;;;21.29;nan
17311;BME280;8773;43.300;0.394;2023-04-19T11:44:19;99249.81;;;21.14;nan
17311;BME280;8773;43.300;0.394;2023-04-19T11:46:58;99255.28;;;21.03;nan
17311;BME280;8773;43.300;0.394;2023-04-19T11:49:27;99247.56;;;21.23;nan
17311;BME280;8773;43.300;0.394;2023-04-19T11:51:56;99244.50;;;21.19;nan
17311;BME280;8773;43.300;0.394;2023-04-19T11:54:25;99248.53;;;21.05;nan
17311;BME280;8773;43.300;0.394;2023-04-19T11:57:06;99239.22;;;21.01;nan
17311;BME280;8773;43.300;0.394;2023-04-19T11:59:35;99239.06;;;21.08;nan
17311;BME280;8773;43.300;0.394;2023-04-19T12:02:07;99241.09;;;20.89;nan
17311;BME280;8773;43.300;0.394;2023-04-19T12:04:36;99234.22;;;21.21;nan
17311;BME280;8773;43.300;0.394;2023-04-19T12:07:05;99228.84;;;21.61;nan
17311;BME280;8773;43.300;0.394;2023-04-19T12:09:34;99220.22;;;21.76;nan
17311;BME280;8773;43.300;0.394;2023-04-19T12:12:04;99217.88;;;21.56;nan
17311;BME280;8773;43.300;0.394;2023-04-19T12:14:32;99219.25;;;21.82;nan
17311;BME280;8773;43.300;0.394;2023-04-19T12:17:09;99229.16;;;22.17;nan
17311;BME280;8773;43.300;0.394;2023-04-19T12:19:45;99224.16;;;21.97;nan
17311;BME280;8773;43.300;0.394;2023-04-19T12:22:15;99226.63;;;21.98;nan
17311;BME280;8773;43.300;0.394;2023-04-19T12:24:45;99223.22;;;21.63;nan
17311;BME280;8773;43.300;0.394;2023-04-19T12:27:16;99211.38;;;21.57;nan
17311;BME280;8773;43.300;0.394;2023-04-19T12:29:44;99224.97;;;21.57;nan
17311;BME280;8773;43.300;0.394;2023-04-19T12:32:14;99216.38;;;21.49;nan
17311;BME280;8773;43.300;0.394;2023-04-19T12:34:42;99211.56;;;21.39;nan
17311;BME280;8773;43.300;0.394;2023-04-19T12:37:10;99223.72;;;21.37;nan
17311;BME280;8773;43.300;0.394;2023-04-19T12:39:38;99217.28;;;21.66;nan
17311;BME280;8773;43.300;0.394;2023-04-19T12:42:06;99207.19;;;21.90;nan
17311;BME280;8773;43.300;0.394;2023-04-19T12:44:34;99211.38;;;21.97;nan
17311;BME280;8773;43.300;0.394;2023-04-19T12:47:02;99204.25;;;22.08;nan
17311;BME280;8773;43.300;0.394;2023-04-19T12:49:32;99206.69;;;22.21;nan
17311;BME280;8773;43.300;0.394;2023-04-19T12:52:00;99215.28;;;22.02;nan
17311;BME280;8773;43.300;0.394;2023-04-19T12:54:28;99206.56;;;22.16;nan
17311;BME280;8773;43.300;0.394;2023-04-19T12:56:56;99204.81;;;22.39;nan
17311;BME280;8773;43.300;0.394;2023-04-19T12:59:24;99214.69;;;22.28;nan
17311;BME280;8773;43.300;0.394;2023-04-19T13:01:52;99208.00;;;22.19;nan
17311;BME280;8773;43.300;0.394;2023-04-19T13:04:20;99207.47;;;22.50;nan
17311;BME280;8773;43.300;0.394;2023-04-19T13:06:50;99209.28;;;22.45;nan
17311;BME280;8773;43.300;0.394;2023-04-19T13:09:18;99215.72;;;22.10;nan
17311;BME280;8773;43.300;0.394;2023-04-19T13:11:46;99211.84;;;21.78;nan
17311;BME280;8773;43.300;0.394;2023-04-19T13:14:14;99213.97;;;22.04;nan
17311;BME280;8773;43.300;0.394;2023-04-19T13:16:42;99196.88;;;22.20;nan
17311;BME280;8773;43.300;0.394;2023-04-19T13:19:10;99204.91;;;22.44;nan
17311;BME280;8773;43.300;0.394;2023-04-19T13:21:38;99201.47;;;22.65;nan
17311;BME280;8773;43.300;0.394;2023-04-19T13:24:08;99196.69;;;22.72;nan
17311;BME280;8773;43.300;0.394;2023-04-19T13:26:36;99194.13;;;22.66;nan
17311;BME280;8773;43.300;0.394;2023-04-19T13:29:04;99191.38;;;22.82;nan
17311;BME280;8773;43.300;0.394;2023-04-19T13:31:33;99181.47;;;23.10;nan
17311;BME280;8773;43.300;0.394;2023-04-19T13:34:02;99187.13;;;22.70;nan
17311;BME280;8773;43.300;0.394;2023-04-19T13:36:30;99186.38;;;22.57;nan
17311;BME280;8773;43.300;0.394;2023-04-19T13:38:58;99182.25;;;22.72;nan
17311;BME280;8773;43.300;0.394;2023-04-19T13:41:28;99180.44;;;22.77;nan
17311;BME280;8773;43.300;0.394;2023-04-19T13:43:56;99185.88;;;22.77;nan
17311;BME280;8773;43.300;0.394;2023-04-19T13:46:24;99177.16;;;22.97;nan
17311;BME280;8773;43.300;0.394;2023-04-19T13:48:52;99173.94;;;23.00;nan
17311;BME280;8773;43.300;0.394;2023-04-19T13:51:20;99176.09;;;22.98;nan
17311;BME280;8773;43.300;0.394;2023-04-19T13:53:48;99174.22;;;22.82;nan
17311;BME280;8773;43.300;0.394;2023-04-19T13:56:16;99168.84;;;23.04;nan
17311;BME280;8773;43.300;0.394;2023-04-19T13:58:45;99171.22;;;23.17;nan
17311;BME280;8773;43.300;0.394;2023-04-19T14:01:14;99173.31;;;23.10;nan
17311;BME280;8773;43.300;0.394;2023-04-19T14:03:42;99165.81;;;22.83;nan